Time;durP1;ratioP1;P1;durP2;ratioP2;P2;SDS_P1;SDS_P2;PMS_P1;PMS_P2;Temp;Humidity;BMP_temperature;BMP_pressure;BME280_temperature;BME280_humidity;BME280_pressure;Samples;Min_cycle;Max_cycle;Signal;HPM_P1;HPM_P2
2023/02/03 00:01:31;;;;;;;1.38;0.80;;;;;;;;;;5011960;28;20216;-44
2023/02/03 00:03:57;;;;;;;1.27;0.90;;;;;;;;;;5007957;28;20579;-44
2023/02/03 00:06:23;;;;;;;0.85;0.80;;;;;;;;;;5016180;28;20180;-43
2023/02/03 00:08:49;;;;;;;0.90;0.90;;;;;;;;;;5010261;28;20189;-44
2023/02/03 00:11:15;;;;;;;0.95;0.65;;;;;;;;;;5013009;28;20200;-43
2023/02/03 00:13:41;;;;;;;2.35;0.70;;;;;;;;;;5016099;28;20181;-44
2023/02/03 00:16:07;;;;;;;1.17;0.70;;;;;;;;;;5014454;28;20230;-44
2023/02/03 00:18:33;;;;;;;2.38;0.80;;;;;;;;;;5018248;28;20231;-44
2023/02/03 00:20:59;;;;;;;1.17;0.80;;;;;;;;;;5014169;28;20549;-44
2023/02/03 00:23:25;;;;;;;0.98;0.80;;;;;;;;;;5010131;28;20208;-44
2023/02/03 00:25:51;;;;;;;1.50;0.90;;;;;;;;;;5016872;28;20184;-44
2023/02/03 00:28:17;;;;;;;1.25;0.90;;;;;;;;;;5018729;28;20196;-44
2023/02/03 00:30:43;;;;;;;1.17;0.70;;;;;;;;;;5011686;28;20793;-44
2023/02/03 00:33:09;;;;;;;0.80;0.70;;;;;;;;;;5014048;28;20206;-44
2023/02/03 00:35:39;;;;;;;0.98;0.80;;;;;;;;;;5017512;28;20177;-44
2023/02/03 00:38:05;;;;;;;0.90;0.77;;;;;;;;;;5017408;28;20183;-44
2023/02/03 00:40:31;;;;;;;0.60;0.60;;;;;;;;;;5017280;28;20210;-44
2023/02/03 00:42:57;;;;;;;1.17;0.70;;;;;;;;;;5011385;28;20440;-44
2023/02/03 00:45:22;;;;;;;0.70;0.70;;;;;;;;;;5017078;28;20176;-44
2023/02/03 00:47:48;;;;;;;2.72;0.60;;;;;;;;;;5009267;28;20189;-44
2023/02/03 00:50:14;;;;;;;1.13;0.70;;;;;;;;;;5010988;28;20250;-44
2023/02/03 00:52:40;;;;;;;1.90;0.90;;;;;;;;;;5013548;28;20200;-44
2023/02/03 00:55:07;;;;;;;0.90;0.80;;;;;;;;;;5013855;28;20184;-44
2023/02/03 00:57:32;;;;;;;1.00;0.90;;;;;;;;;;5016985;28;20189;-44
2023/02/03 00:59:58;;;;;;;0.65;0.65;;;;;;;;;;5015273;28;20223;-44
2023/02/03 01:02:24;;;;;;;1.00;0.70;;;;;;;;;;5013565;28;20596;-44
2023/02/03 01:04:50;;;;;;;0.80;0.80;;;;;;;;;;5010546;28;20236;-44
2023/02/03 01:07:16;;;;;;;0.70;0.70;;;;;;;;;;5011840;28;20181;-44
2023/02/03 01:09:42;;;;;;;0.70;0.70;;;;;;;;;;5016803;28;20255;-44
2023/02/03 01:12:08;;;;;;;0.73;0.63;;;;;;;;;;5011882;28;20273;-45
2023/02/03 01:14:34;;;;;;;0.75;0.68;;;;;;;;;;5008850;28;20465;-44
2023/02/03 01:17:00;;;;;;;0.65;0.60;;;;;;;;;;5010144;28;20185;-44
2023/02/03 01:19:26;;;;;;;0.90;0.77;;;;;;;;;;5009568;28;20267;-44
2023/02/03 01:21:52;;;;;;;0.73;0.70;;;;;;;;;;5011156;28;20180;-45
2023/02/03 01:24:18;;;;;;;0.70;0.70;;;;;;;;;;5014078;28;20185;-45
2023/02/03 01:26:44;;;;;;;0.60;0.60;;;;;;;;;;5014293;28;20195;-45
2023/02/03 01:29:10;;;;;;;1.17;0.60;;;;;;;;;;5011486;28;20215;-45
2023/02/03 01:31:38;;;;;;;0.68;0.60;;;;;;;;;;5015996;28;20188;-45
2023/02/03 01:34:05;;;;;;;1.33;0.70;;;;;;;;;;5008893;28;20193;-45
2023/02/03 01:36:31;;;;;;;1.95;0.63;;;;;;;;;;5014224;28;20181;-45
2023/02/03 01:38:57;;;;;;;0.50;0.50;;;;;;;;;;5015830;28;20208;-45
2023/02/03 01:41:25;;;;;;;0.70;0.70;;;;;;;;;;5013663;28;20181;-45
2023/02/03 01:43:52;;;;;;;0.52;0.52;;;;;;;;;;5005121;28;20185;-45
2023/02/03 01:46:24;;;;;;;0.75;0.75;;;;;;;;;;5012186;28;20552;-45
2023/02/03 01:48:51;;;;;;;0.73;0.70;;;;;;;;;;5004680;28;20184;-45
2023/02/03 01:51:17;;;;;;;0.60;0.55;;;;;;;;;;5013600;28;20453;-45
2023/02/03 01:53:43;;;;;;;0.63;0.52;;;;;;;;;;5011418;28;20206;-45
2023/02/03 01:56:09;;;;;;;0.65;0.57;;;;;;;;;;5015826;28;20192;-45
2023/02/03 01:58:37;;;;;;;0.60;0.60;;;;;;;;;;5005926;28;20216;-45
2023/02/03 02:01:03;;;;;;;0.60;0.60;;;;;;;;;;5004720;28;20185;-45
2023/02/03 02:03:35;;;;;;;0.52;0.52;;;;;;;;;;5005052;28;20195;-45
2023/02/03 02:06:08;;;;;;;0.75;0.70;;;;;;;;;;5016411;28;20218;-45
2023/02/03 02:08:35;;;;;;;0.70;0.60;;;;;;;;;;5014323;28;20187;-45
2023/02/03 02:11:01;;;;;;;0.55;0.55;;;;;;;;;;5012603;28;20196;-45
2023/02/03 02:13:29;;;;;;;0.93;0.65;;;;;;;;;;5011438;28;20188;-45
2023/02/03 02:16:11;;;;;;;2.17;0.60;;;;;;;;;;5010411;28;20476;-45
2023/02/03 02:18:37;;;;;;;0.70;0.65;;;;;;;;;;5016262;28;20266;-45
2023/02/03 02:21:21;;;;;;;0.50;0.50;;;;;;;;;;5009500;28;20192;-45
2023/02/03 02:23:59;;;;;;;0.35;0.35;;;;;;;;;;5010908;28;20239;-45
2023/02/03 02:26:44;;;;;;;0.45;0.45;;;;;;;;;;5012296;28;20202;-45
2023/02/03 02:29:09;;;;;;;1.40;0.60;;;;;;;;;;5009878;28;20189;-45
2023/02/03 02:31:43;;;;;;;0.60;0.60;;;;;;;;;;5013147;28;20181;-45
2023/02/03 02:34:22;;;;;;;0.50;0.50;;;;;;;;;;5014368;28;20196;-45
2023/02/03 02:36:58;;;;;;;0.57;0.57;;;;;;;;;;5013937;28;20195;-45
2023/02/03 02:39:31;;;;;;;2.67;0.55;;;;;;;;;;5015170;28;20208;-45
2023/02/03 02:42:13;;;;;;;0.75;0.60;;;;;;;;;;5007884;28;20219;-45
2023/02/03 02:44:41;;;;;;;0.43;0.40;;;;;;;;;;5000925;28;20314;-45
2023/02/03 02:47:19;;;;;;;0.50;0.50;;;;;;;;;;5014316;28;20195;-45
2023/02/03 02:49:54;;;;;;;0.50;0.50;;;;;;;;;;5013579;28;20571;-45
2023/02/03 02:52:21;;;;;;;0.47;0.47;;;;;;;;;;5007762;28;20270;-45
2023/02/03 02:54:52;;;;;;;0.40;0.40;;;;;;;;;;5008122;28;20274;-46
2023/02/03 02:57:19;;;;;;;0.60;0.60;;;;;;;;;;5011510;28;20226;-45
2023/02/03 02:59:46;;;;;;;0.30;0.30;;;;;;;;;;5009275;28;20288;-45
2023/02/03 03:02:12;;;;;;;0.65;0.65;;;;;;;;;;5001109;28;20289;-46
2023/02/03 03:04:39;;;;;;;0.40;0.40;;;;;;;;;;5014475;28;20192;-45
2023/02/03 03:07:11;;;;;;;0.50;0.50;;;;;;;;;;5010658;28;20745;-45
2023/02/03 03:09:42;;;;;;;0.50;0.50;;;;;;;;;;5009806;28;20204;-45
2023/02/03 03:12:16;;;;;;;0.52;0.52;;;;;;;;;;5008683;28;20247;-45
2023/02/03 03:14:44;;;;;;;0.47;0.45;;;;;;;;;;5010971;28;20216;-45
2023/02/03 03:17:13;;;;;;;1.08;0.60;;;;;;;;;;5010015;28;20188;-45
2023/02/03 03:19:42;;;;;;;0.50;0.50;;;;;;;;;;5011606;28;20746;-46
2023/02/03 03:22:10;;;;;;;0.30;0.30;;;;;;;;;;5011628;28;20172;-45
2023/02/03 03:24:41;;;;;;;1.58;0.50;;;;;;;;;;5005068;28;20584;-45
2023/02/03 03:27:07;;;;;;;0.40;0.40;;;;;;;;;;5003759;28;20275;-45
2023/02/03 03:29:36;;;;;;;0.30;0.30;;;;;;;;;;5013012;28;20588;-45
2023/02/03 03:32:02;;;;;;;0.57;0.57;;;;;;;;;;5012384;28;20275;-46
2023/02/03 03:34:29;;;;;;;0.40;0.40;;;;;;;;;;5008195;28;20504;-45
2023/02/03 03:37:14;;;;;;;0.63;0.40;;;;;;;;;;5009843;28;20556;-45
2023/02/03 03:39:44;;;;;;;0.60;0.60;;;;;;;;;;5004113;28;20227;-45
2023/02/03 03:42:28;;;;;;;0.65;0.50;;;;;;;;;;5006963;28;20188;-45
2023/02/03 03:44:58;;;;;;;0.50;0.50;;;;;;;;;;5012023;28;20465;-45
2023/02/03 03:47:29;;;;;;;0.40;0.40;;;;;;;;;;5010856;28;20181;-45
2023/02/03 03:49:56;;;;;;;0.47;0.43;;;;;;;;;;5013706;28;20191;-46
2023/02/03 03:52:26;;;;;;;0.45;0.45;;;;;;;;;;5005399;28;20185;-46
2023/02/03 03:54:53;;;;;;;0.50;0.50;;;;;;;;;;5010671;28;20195;-46
2023/02/03 03:57:22;;;;;;;0.52;0.50;;;;;;;;;;5013994;28;20184;-46
2023/02/03 03:59:49;;;;;;;1.00;0.52;;;;;;;;;;5008199;28;20307;-45
2023/02/03 04:02:16;;;;;;;0.47;0.47;;;;;;;;;;5003375;28;20192;-45
2023/02/03 04:04:43;;;;;;;0.63;0.50;;;;;;;;;;5008288;28;20451;-45
2023/02/03 04:07:09;;;;;;;0.70;0.60;;;;;;;;;;5009387;28;20180;-45
2023/02/03 04:09:35;;;;;;;0.38;0.38;;;;;;;;;;5014852;28;20188;-45
2023/02/03 04:12:02;;;;;;;0.40;0.40;;;;;;;;;;5013652;28;20429;-45
2023/02/03 04:14:37;;;;;;;0.50;0.50;;;;;;;;;;5008089;28;20457;-46
2023/02/03 04:17:03;;;;;;;0.60;0.60;;;;;;;;;;5010477;28;20208;-46
2023/02/03 04:19:29;;;;;;;0.40;0.40;;;;;;;;;;5009395;28;21031;-46
2023/02/03 04:21:55;;;;;;;0.40;0.40;;;;;;;;;;5015410;28;20469;-45
2023/02/03 04:24:21;;;;;;;0.40;0.40;;;;;;;;;;5011680;28;20205;-46
2023/02/03 04:26:47;;;;;;;0.40;0.40;;;;;;;;;;5012439;28;20560;-45
2023/02/03 04:29:13;;;;;;;0.30;0.30;;;;;;;;;;5014515;28;20468;-46
2023/02/03 04:31:38;;;;;;;0.43;0.43;;;;;;;;;;5014363;28;20235;-46
2023/02/03 04:34:05;;;;;;;0.40;0.40;;;;;;;;;;5002920;28;20172;-45
2023/02/03 04:36:31;;;;;;;0.30;0.30;;;;;;;;;;5013948;28;20511;-45
2023/02/03 04:38:56;;;;;;;0.50;0.50;;;;;;;;;;5013290;28;20284;-45
2023/02/03 04:41:22;;;;;;;0.32;0.32;;;;;;;;;;5014475;28;20189;-45
2023/02/03 04:43:48;;;;;;;0.47;0.32;;;;;;;;;;5010734;28;20431;-45
2023/02/03 04:46:14;;;;;;;0.47;0.40;;;;;;;;;;5008631;28;20195;-45
2023/02/03 04:48:40;;;;;;;0.40;0.40;;;;;;;;;;5008020;28;20181;-45
2023/02/03 04:51:07;;;;;;;0.30;0.30;;;;;;;;;;5010563;28;20461;-45
2023/02/03 04:53:34;;;;;;;0.40;0.40;;;;;;;;;;5015291;28;20255;-45
2023/02/03 04:56:00;;;;;;;0.32;0.32;;;;;;;;;;5011038;28;20181;-46
2023/02/03 04:58:26;;;;;;;0.40;0.35;;;;;;;;;;5014868;28;20192;-45
2023/02/03 05:00:52;;;;;;;0.98;0.50;;;;;;;;;;5011947;28;20180;-46
2023/02/03 05:03:18;;;;;;;0.50;0.47;;;;;;;;;;5010286;28;20189;-45
2023/02/03 05:05:44;;;;;;;0.65;0.40;;;;;;;;;;5009449;28;20303;-45
2023/02/03 05:08:10;;;;;;;0.45;0.45;;;;;;;;;;5010588;28;20764;-45
2023/02/03 05:10:36;;;;;;;0.50;0.50;;;;;;;;;;5012306;28;20238;-45
2023/02/03 05:13:02;;;;;;;0.40;0.40;;;;;;;;;;5013339;28;20185;-45
2023/02/03 05:15:28;;;;;;;0.75;0.45;;;;;;;;;;5017110;28;20215;-45
2023/02/03 05:17:54;;;;;;;0.20;0.20;;;;;;;;;;5014372;28;20188;-46
2023/02/03 05:20:20;;;;;;;0.40;0.40;;;;;;;;;;5014086;28;20213;-45
2023/02/03 05:22:47;;;;;;;0.30;0.30;;;;;;;;;;5013435;28;20181;-45
2023/02/03 05:25:13;;;;;;;0.38;0.38;;;;;;;;;;5012825;28;20256;-46
2023/02/03 05:27:39;;;;;;;0.60;0.60;;;;;;;;;;5013037;28;20196;-45
2023/02/03 05:30:06;;;;;;;0.40;0.40;;;;;;;;;;5015373;28;20451;-45
2023/02/03 05:32:31;;;;;;;0.20;0.20;;;;;;;;;;5013361;28;20264;-45
2023/02/03 05:34:57;;;;;;;0.82;0.60;;;;;;;;;;5015934;28;20287;-45
2023/02/03 05:37:23;;;;;;;0.40;0.40;;;;;;;;;;5014471;28;20219;-45
2023/02/03 05:39:49;;;;;;;0.30;0.30;;;;;;;;;;5016014;28;20368;-45
2023/02/03 05:42:15;;;;;;;0.30;0.30;;;;;;;;;;5009891;28;20615;-46
2023/02/03 05:44:41;;;;;;;0.40;0.40;;;;;;;;;;5013554;28;20172;-46
2023/02/03 05:47:07;;;;;;;0.32;0.32;;;;;;;;;;5013480;28;20263;-46
2023/02/03 05:49:33;;;;;;;0.40;0.40;;;;;;;;;;5015618;28;20196;-46
2023/02/03 05:51:59;;;;;;;0.43;0.40;;;;;;;;;;5012285;28;20239;-46
2023/02/03 05:54:25;;;;;;;0.47;0.47;;;;;;;;;;5013671;28;20192;-45
2023/02/03 05:56:51;;;;;;;1.02;0.40;;;;;;;;;;5011755;28;20189;-45
2023/02/03 05:59:17;;;;;;;0.40;0.40;;;;;;;;;;5008513;28;20208;-45
2023/02/03 06:01:43;;;;;;;0.40;0.40;;;;;;;;;;5013330;28;20180;-46
2023/02/03 06:04:09;;;;;;;0.40;0.40;;;;;;;;;;5012479;28;20180;-45
2023/02/03 06:06:35;;;;;;;0.30;0.30;;;;;;;;;;5012747;28;20188;-45
2023/02/03 06:09:02;;;;;;;0.47;0.35;;;;;;;;;;5010861;28;20192;-45
2023/02/03 06:11:28;;;;;;;0.38;0.38;;;;;;;;;;5015052;28;20188;-45
2023/02/03 06:13:55;;;;;;;0.45;0.40;;;;;;;;;;5007126;28;20188;-45
2023/02/03 06:16:23;;;;;;;0.40;0.40;;;;;;;;;;5012814;28;20314;-45
2023/02/03 06:18:50;;;;;;;0.75;0.40;;;;;;;;;;5009524;28;20457;-46
2023/02/03 06:21:15;;;;;;;0.30;0.30;;;;;;;;;;5015662;28;20730;-45
2023/02/03 06:23:41;;;;;;;0.40;0.40;;;;;;;;;;5009173;28;20208;-45
2023/02/03 06:26:07;;;;;;;0.47;0.40;;;;;;;;;;5015154;28;20180;-46
2023/02/03 06:28:33;;;;;;;0.40;0.40;;;;;;;;;;5015311;28;20173;-46
2023/02/03 06:30:59;;;;;;;0.38;0.38;;;;;;;;;;5014662;28;20185;-46
2023/02/03 06:33:26;;;;;;;0.30;0.30;;;;;;;;;;5013810;28;20192;-45
2023/02/03 06:35:53;;;;;;;0.20;0.20;;;;;;;;;;5015128;28;20255;-45
2023/02/03 06:38:19;;;;;;;0.95;0.30;;;;;;;;;;5015135;28;20188;-45
2023/02/03 06:40:48;;;;;;;0.40;0.40;;;;;;;;;;5015022;28;20523;-46
2023/02/03 06:43:15;;;;;;;0.20;0.20;;;;;;;;;;5009952;28;20570;-45
2023/02/03 06:45:40;;;;;;;0.38;0.38;;;;;;;;;;5007833;28;20311;-45
2023/02/03 06:48:07;;;;;;;0.40;0.35;;;;;;;;;;5011534;28;20298;-45
2023/02/03 06:50:33;;;;;;;0.20;0.20;;;;;;;;;;5006982;28;20187;-45
2023/02/03 06:52:59;;;;;;;0.52;0.38;;;;;;;;;;5004280;28;20173;-45
2023/02/03 06:55:25;;;;;;;0.20;0.20;;;;;;;;;;5014479;28;20507;-46
2023/02/03 06:57:51;;;;;;;0.28;0.28;;;;;;;;;;5011478;28;20243;-45
2023/02/03 07:00:17;;;;;;;0.30;0.30;;;;;;;;;;5006610;28;20260;-46
2023/02/03 07:02:43;;;;;;;0.30;0.28;;;;;;;;;;5011630;28;20176;-45
2023/02/03 07:05:09;;;;;;;0.40;0.40;;;;;;;;;;5014367;28;20630;-46
2023/02/03 07:07:38;;;;;;;0.20;0.20;;;;;;;;;;5012964;28;20176;-45
2023/02/03 07:10:04;;;;;;;0.40;0.40;;;;;;;;;;5007826;28;20187;-45
2023/02/03 07:12:30;;;;;;;0.40;0.40;;;;;;;;;;5012135;28;20185;-46
2023/02/03 07:14:56;;;;;;;0.30;0.30;;;;;;;;;;5007091;28;20208;-45
2023/02/03 07:17:22;;;;;;;0.40;0.30;;;;;;;;;;5013213;28;20192;-45
2023/02/03 07:19:48;;;;;;;0.30;0.30;;;;;;;;;;5011564;28;20208;-45
2023/02/03 07:22:14;;;;;;;0.28;0.28;;;;;;;;;;5008561;28;20199;-45
2023/02/03 07:24:40;;;;;;;0.40;0.40;;;;;;;;;;5008624;28;20184;-45
2023/02/03 07:27:06;;;;;;;0.28;0.28;;;;;;;;;;5011446;28;20188;-45
2023/02/03 07:29:32;;;;;;;0.35;0.35;;;;;;;;;;5011853;28;20185;-45
2023/02/03 07:31:58;;;;;;;0.40;0.40;;;;;;;;;;5010950;28;20584;-45
2023/02/03 07:34:23;;;;;;;0.30;0.30;;;;;;;;;;5012369;28;20188;-45
2023/02/03 07:36:49;;;;;;;0.30;0.30;;;;;;;;;;5015115;28;20204;-45
2023/02/03 07:39:15;;;;;;;0.30;0.30;;;;;;;;;;5008190;28;20836;-45
2023/02/03 07:41:41;;;;;;;0.43;0.30;;;;;;;;;;5014080;28;20180;-45
2023/02/03 07:44:08;;;;;;;0.30;0.30;;;;;;;;;;5007813;28;20181;-45
2023/02/03 07:46:34;;;;;;;0.32;0.32;;;;;;;;;;5012953;28;20219;-46
2023/02/03 07:49:03;;;;;;;0.40;0.40;;;;;;;;;;5011789;28;20266;-46
2023/02/03 07:51:29;;;;;;;0.50;0.40;;;;;;;;;;5023149;28;20272;-45
2023/02/03 07:53:56;;;;;;;0.47;0.47;;;;;;;;;;5008766;28;20620;-45
2023/02/03 07:56:21;;;;;;;0.30;0.30;;;;;;;;;;5011262;28;20281;-45
2023/02/03 07:58:47;;;;;;;0.40;0.40;;;;;;;;;;5001516;28;20490;-45
2023/02/03 08:01:15;;;;;;;0.30;0.30;;;;;;;;;;5001853;28;20554;-45
2023/02/03 08:03:41;;;;;;;0.30;0.30;;;;;;;;;;5008929;28;20175;-45
2023/02/03 08:06:07;;;;;;;0.40;0.40;;;;;;;;;;5009750;28;20184;-45
2023/02/03 08:08:33;;;;;;;0.40;0.40;;;;;;;;;;5002265;28;20181;-45
2023/02/03 08:10:59;;;;;;;0.52;0.40;;;;;;;;;;5005921;28;20182;-45
2023/02/03 08:13:25;;;;;;;0.50;0.50;;;;;;;;;;5004175;28;20196;-45
2023/02/03 08:15:51;;;;;;;0.30;0.30;;;;;;;;;;5007826;28;20255;-45
2023/02/03 08:18:18;;;;;;;0.52;0.40;;;;;;;;;;5008287;28;20787;-45
2023/02/03 08:20:43;;;;;;;0.32;0.32;;;;;;;;;;5014194;28;20267;-45
2023/02/03 08:23:09;;;;;;;0.30;0.30;;;;;;;;;;5006941;28;20473;-45
2023/02/03 08:25:35;;;;;;;0.40;0.40;;;;;;;;;;5015357;28;20483;-45
2023/02/03 08:28:01;;;;;;;0.30;0.30;;;;;;;;;;5007312;28;20569;-45
2023/02/03 08:30:27;;;;;;;0.50;0.50;;;;;;;;;;5017608;28;20180;-45
2023/02/03 08:32:53;;;;;;;0.30;0.30;;;;;;;;;;5017651;28;20177;-45
2023/02/03 08:35:19;;;;;;;0.40;0.35;;;;;;;;;;5016655;28;20495;-45
2023/02/03 08:37:45;;;;;;;0.40;0.40;;;;;;;;;;5016593;28;20180;-45
2023/02/03 08:40:11;;;;;;;0.50;0.50;;;;;;;;;;5017533;28;20223;-45
2023/02/03 08:42:37;;;;;;;0.30;0.30;;;;;;;;;;5016707;28;20223;-45
2023/02/03 08:45:03;;;;;;;0.32;0.30;;;;;;;;;;5008770;28;20184;-45
2023/02/03 08:47:29;;;;;;;0.20;0.20;;;;;;;;;;5017101;28;20184;-45
2023/02/03 08:49:55;;;;;;;0.98;0.45;;;;;;;;;;5018118;28;20191;-45
2023/02/03 08:52:21;;;;;;;0.20;0.20;;;;;;;;;;5008722;28;20199;-45
2023/02/03 08:54:47;;;;;;;0.30;0.30;;;;;;;;;;5016797;28;20552;-45
2023/02/03 08:57:13;;;;;;;0.40;0.40;;;;;;;;;;5010755;28;20180;-45
2023/02/03 08:59:41;;;;;;;0.40;0.20;;;;;;;;;;5017922;28;20583;-45
2023/02/03 09:02:10;;;;;;;0.40;0.40;;;;;;;;;;5016903;28;20223;-45
2023/02/03 09:04:36;;;;;;;0.40;0.40;;;;;;;;;;5015355;28;20216;-45
2023/02/03 09:07:03;;;;;;;0.40;0.30;;;;;;;;;;5009726;28;20500;-45
2023/02/03 09:09:29;;;;;;;0.20;0.20;;;;;;;;;;5009061;28;20189;-45
2023/02/03 09:12:00;;;;;;;0.30;0.30;;;;;;;;;;5017238;28;20176;-45
2023/02/03 09:14:26;;;;;;;0.55;0.40;;;;;;;;;;5008278;28;20185;-45
2023/02/03 09:16:52;;;;;;;0.35;0.35;;;;;;;;;;5015658;28;20291;-45
2023/02/03 09:19:18;;;;;;;0.45;0.30;;;;;;;;;;5015614;28;20326;-45
2023/02/03 09:21:44;;;;;;;0.52;0.45;;;;;;;;;;5017395;28;20195;-45
2023/02/03 09:24:10;;;;;;;1.35;0.40;;;;;;;;;;5012194;28;20238;-45
2023/02/03 09:26:36;;;;;;;0.30;0.30;;;;;;;;;;5011203;28;20184;-45
2023/02/03 09:29:02;;;;;;;0.40;0.40;;;;;;;;;;5009237;28;20196;-45
2023/02/03 09:31:27;;;;;;;0.35;0.32;;;;;;;;;;5009360;28;20186;-45
2023/02/03 09:33:53;;;;;;;0.65;0.40;;;;;;;;;;5014621;28;20177;-45
2023/02/03 09:36:19;;;;;;;1.20;0.30;;;;;;;;;;5016314;28;20541;-45
2023/02/03 09:38:45;;;;;;;2.10;0.40;;;;;;;;;;5009652;28;20263;-45
2023/02/03 09:41:30;;;;;;;0.88;0.65;;;;;;;;;;5006773;28;20188;-45
2023/02/03 09:44:22;;;;;;;1.23;0.50;;;;;;;;;;5004452;28;20604;-45
2023/02/03 09:46:51;;;;;;;1.05;0.50;;;;;;;;;;5005561;28;20564;-45
2023/02/03 09:49:21;;;;;;;2.33;0.80;;;;;;;;;;5012253;28;20192;-45
2023/02/03 09:51:54;;;;;;;0.60;0.45;;;;;;;;;;5009269;28;20456;-45
2023/02/03 09:54:23;;;;;;;1.35;0.60;;;;;;;;;;5014600;28;20202;-45
2023/02/03 09:56:51;;;;;;;3.03;0.70;;;;;;;;;;5014419;28;20192;-45
2023/02/03 09:59:17;;;;;;;1.25;0.55;;;;;;;;;;5010999;28;20193;-46
2023/02/03 10:01:49;;;;;;;1.05;0.50;;;;;;;;;;5010957;28;20173;-45
2023/02/03 10:04:28;;;;;;;2.35;0.60;;;;;;;;;;5012805;28;20326;-45
2023/02/03 10:07:02;;;;;;;0.57;0.52;;;;;;;;;;5004725;28;20195;-45
2023/02/03 10:09:39;;;;;;;0.75;0.50;;;;;;;;;;5006712;28;20177;-45
2023/02/03 10:12:11;;;;;;;0.98;0.40;;;;;;;;;;5013477;28;20193;-45
2023/02/03 10:14:56;;;;;;;0.75;0.45;;;;;;;;;;5001959;28;20242;-47
2023/02/03 10:17:22;;;;;;;1.63;0.88;;;;;;;;;;5008962;28;20181;-45
2023/02/03 10:19:50;;;;;;;3.50;0.55;;;;;;;;;;5014056;28;20219;-45
2023/02/03 10:22:19;;;;;;;1.00;0.43;;;;;;;;;;5011513;28;20184;-45
2023/02/03 10:24:50;;;;;;;0.63;0.40;;;;;;;;;;5030170;28;20196;-45
2023/02/03 10:27:18;;;;;;;0.63;0.43;;;;;;;;;;5015876;28;20227;-45
2023/02/03 10:29:44;;;;;;;2.67;0.68;;;;;;;;;;5014927;28;20193;-44
2023/02/03 10:32:11;;;;;;;1.23;0.57;;;;;;;;;;5013039;28;20587;-45
2023/02/03 10:34:37;;;;;;;1.88;0.50;;;;;;;;;;5013883;28;20556;-45
2023/02/03 10:37:12;;;;;;;2.55;0.57;;;;;;;;;;5011472;28;20280;-45
2023/02/03 10:39:41;;;;;;;0.32;0.30;;;;;;;;;;5009154;28;20203;-45
2023/02/03 10:42:08;;;;;;;0.50;0.40;;;;;;;;;;5010102;28;20192;-45
2023/02/03 10:44:39;;;;;;;1.05;0.50;;;;;;;;;;5003857;28;20580;-45
2023/02/03 10:47:20;;;;;;;1.90;0.50;;;;;;;;;;5014666;28;20219;-45
2023/02/03 10:49:47;;;;;;;1.10;0.52;;;;;;;;;;5007628;28;20246;-45
2023/02/03 10:52:24;;;;;;;1.85;0.50;;;;;;;;;;5013835;28;20184;-45
2023/02/03 10:54:50;;;;;;;1.15;0.60;;;;;;;;;;5003801;28;20192;-45
2023/02/03 10:57:16;;;;;;;1.67;0.60;;;;;;;;;;5005157;28;20181;-47
2023/02/03 10:59:44;;;;;;;2.15;0.60;;;;;;;;;;5005967;28;20197;-45
2023/02/03 11:02:21;;;;;;;0.70;0.52;;;;;;;;;;5000407;28;20497;-45
2023/02/03 11:04:47;;;;;;;0.50;0.50;;;;;;;;;;5007014;28;20211;-45
2023/02/03 11:07:26;;;;;;;1.52;0.60;;;;;;;;;;5008878;28;20212;-45
2023/02/03 11:09:52;;;;;;;0.80;0.60;;;;;;;;;;4998951;28;20227;-45
2023/02/03 11:12:19;;;;;;;0.52;0.50;;;;;;;;;;5012638;28;20197;-45
2023/02/03 11:14:46;;;;;;;0.38;0.35;;;;;;;;;;5006326;28;20246;-45
2023/02/03 11:17:16;;;;;;;0.68;0.45;;;;;;;;;;5008221;28;20184;-45
2023/02/03 11:19:43;;;;;;;0.50;0.40;;;;;;;;;;5009274;28;20212;-45
2023/02/03 11:22:09;;;;;;;0.40;0.40;;;;;;;;;;5010902;28;20226;-45
2023/02/03 11:24:40;;;;;;;4.70;0.60;;;;;;;;;;5013357;28;20703;-46
2023/02/03 11:27:09;;;;;;;0.40;0.40;;;;;;;;;;5015353;28;20207;-45
2023/02/03 11:29:36;;;;;;;1.02;0.50;;;;;;;;;;5010866;28;20242;-45
2023/02/03 11:32:21;;;;;;;3.05;0.50;;;;;;;;;;5012810;28;20335;-45
2023/02/03 11:34:56;;;;;;;1.17;0.28;;;;;;;;;;5006641;28;20180;-45
2023/02/03 11:37:36;;;;;;;1.13;0.40;;;;;;;;;;5011315;28;20245;-50
2023/02/03 11:40:11;;;;;;;0.85;0.70;;;;;;;;;;5005318;28;20278;-45
2023/02/03 11:42:42;;;;;;;1.05;0.63;;;;;;;;;;5013965;28;20259;-45
2023/02/03 11:45:14;;;;;;;2.60;1.15;;;;;;;;;;5003224;28;20263;-45
2023/02/03 11:47:46;;;;;;;2.70;0.60;;;;;;;;;;5012874;28;20233;-45
2023/02/03 11:50:18;;;;;;;0.70;0.40;;;;;;;;;;5011883;28;20520;-45
2023/02/03 11:52:56;;;;;;;1.88;0.60;;;;;;;;;;5005685;28;20275;-45
2023/02/03 11:55:45;;;;;;;1.70;0.80;;;;;;;;;;5012455;28;20192;-45
2023/02/03 11:58:37;;;;;;;2.92;0.52;;;;;;;;;;5010619;28;20201;-45
2023/02/03 12:01:09;;;;;;;2.65;0.70;;;;;;;;;;5011761;28;20243;-45
2023/02/03 12:03:43;;;;;;;1.73;0.70;;;;;;;;;;5004006;28;20219;-46
2023/02/03 12:06:09;;;;;;;4.45;0.90;;;;;;;;;;5016161;28;20575;-45
2023/02/03 12:08:40;;;;;;;2.67;0.63;;;;;;;;;;5004462;28;20179;-46
2023/02/03 12:11:21;;;;;;;7.93;0.95;;;;;;;;;;5008891;28;20271;-45
2023/02/03 12:14:02;;;;;;;5.22;0.70;;;;;;;;;;5007953;28;20188;-45
2023/02/03 12:16:47;;;;;;;5.85;1.08;;;;;;;;;;5003683;28;20205;-45
2023/02/03 12:19:19;;;;;;;5.18;1.20;;;;;;;;;;5014027;28;20255;-45
2023/02/03 12:21:46;;;;;;;5.97;1.80;;;;;;;;;;5016544;28;20180;-45
2023/02/03 12:24:23;;;;;;;10.18;1.85;;;;;;;;;;5017866;28;20235;-45
2023/02/03 12:27:11;;;;;;;4.75;1.42;;;;;;;;;;5010624;28;20192;-45
2023/02/03 12:29:42;;;;;;;4.03;1.48;;;;;;;;;;5013658;28;20188;-45
2023/02/03 12:32:26;;;;;;;9.85;1.42;;;;;;;;;;5012892;28;20222;-45
2023/02/03 12:35:04;;;;;;;3.35;1.35;;;;;;;;;;5016259;28;20191;-45
2023/02/03 12:37:33;;;;;;;5.20;1.27;;;;;;;;;;5016860;28;20234;-45
2023/02/03 12:40:01;;;;;;;3.65;1.23;;;;;;;;;;5017359;28;20476;-46
2023/02/03 12:42:30;;;;;;;10.10;1.38;;;;;;;;;;5016364;28;20192;-46
2023/02/03 12:45:08;;;;;;;8.10;1.58;;;;;;;;;;5013855;28;20268;-45
2023/02/03 12:47:38;;;;;;;7.43;1.48;;;;;;;;;;5010322;28;20184;-45
2023/02/03 12:50:04;;;;;;;3.60;1.50;;;;;;;;;;5010676;28;20599;-46
2023/02/03 12:52:43;;;;;;;4.85;1.60;;;;;;;;;;5009942;28;20196;-45
2023/02/03 12:55:18;;;;;;;5.65;1.38;;;;;;;;;;5011892;28;20180;-46
2023/02/03 12:57:48;;;;;;;4.03;1.60;;;;;;;;;;5010757;28;20176;-46
2023/02/03 13:00:20;;;;;;;5.82;1.48;;;;;;;;;;5009659;28;20298;-45
2023/02/03 13:03:08;;;;;;;9.52;1.60;;;;;;;;;;5009271;28;20524;-45
2023/02/03 13:05:41;;;;;;;7.57;1.40;;;;;;;;;;5015467;28;20675;-45
2023/02/03 13:08:22;;;;;;;8.63;1.52;;;;;;;;;;5011510;28;20181;-45
2023/02/03 13:10:54;;;;;;;5.45;1.60;;;;;;;;;;5010930;28;20200;-45
2023/02/03 13:13:25;;;;;;;6.00;1.92;;;;;;;;;;5005383;28;20204;-45
2023/02/03 13:15:51;;;;;;;3.88;1.23;;;;;;;;;;5009170;28;20246;-45
2023/02/03 13:18:20;;;;;;;5.18;1.65;;;;;;;;;;5012118;28;20194;-46
2023/02/03 13:20:46;;;;;;;8.60;1.52;;;;;;;;;;5016344;28;20251;-45
2023/02/03 13:23:13;;;;;;;12.05;1.73;;;;;;;;;;5014557;28;20192;-45
2023/02/03 13:25:45;;;;;;;3.90;1.50;;;;;;;;;;5013743;28;20181;-45
2023/02/03 13:28:25;;;;;;;6.57;1.40;;;;;;;;;;5010673;28;20219;-45
2023/02/03 13:31:09;;;;;;;4.72;1.33;;;;;;;;;;5015051;28;20184;-45
2023/02/03 13:33:41;;;;;;;8.13;1.67;;;;;;;;;;5008323;28;20271;-45
2023/02/03 13:36:26;;;;;;;6.75;1.58;;;;;;;;;;5013343;28;20572;-45
2023/02/03 13:39:06;;;;;;;4.90;1.60;;;;;;;;;;5015345;28;20200;-45
2023/02/03 13:41:53;;;;;;;4.45;1.30;;;;;;;;;;5015987;28;20191;-45
2023/02/03 13:44:21;;;;;;;3.95;1.48;;;;;;;;;;5006304;28;20463;-45
2023/02/03 13:46:47;;;;;;;9.13;2.80;;;;;;;;;;5011872;28;20184;-45
2023/02/03 13:49:45;;;;;;;5.20;2.20;;;;;;;;;;5012355;28;20188;-45
2023/02/03 13:52:23;;;;;;;8.77;2.00;;;;;;;;;;5009683;28;20588;-46
2023/02/03 13:54:49;;;;;;;4.88;1.63;;;;;;;;;;5002865;28;20242;-46
2023/02/03 13:57:20;;;;;;;9.60;1.70;;;;;;;;;;5014238;28;20184;-45
2023/02/03 13:59:48;;;;;;;4.28;1.80;;;;;;;;;;5010023;28;20200;-46
2023/02/03 14:02:17;;;;;;;5.13;1.40;;;;;;;;;;5011269;28;20173;-45
2023/02/03 14:04:46;;;;;;;6.07;1.77;;;;;;;;;;5007766;28;20587;-46
2023/02/03 14:07:26;;;;;;;3.65;1.40;;;;;;;;;;5007837;28;20476;-46
2023/02/03 14:10:07;;;;;;;4.28;1.42;;;;;;;;;;5001770;28;20181;-46
2023/02/03 14:12:35;;;;;;;5.25;1.25;;;;;;;;;;5015329;28;20176;-46
2023/02/03 14:15:12;;;;;;;6.00;1.40;;;;;;;;;;5015589;28;20200;-46
2023/02/03 14:17:41;;;;;;;6.15;1.55;;;;;;;;;;5008673;28;20188;-45
2023/02/03 14:20:25;;;;;;;5.22;1.40;;;;;;;;;;5014156;28;20513;-45
2023/02/03 14:23:07;;;;;;;3.70;1.40;;;;;;;;;;5001623;28;20188;-45
2023/02/03 14:25:41;;;;;;;3.35;1.20;;;;;;;;;;5015941;28;20173;-45
2023/02/03 14:28:10;;;;;;;3.42;1.40;;;;;;;;;;5008638;28;20188;-45
2023/02/03 14:30:54;;;;;;;3.40;1.33;;;;;;;;;;4997444;28;20204;-46
2023/02/03 14:33:24;;;;;;;2.58;1.30;;;;;;;;;;5007292;28;20275;-45
2023/02/03 14:35:50;;;;;;;5.57;1.30;;;;;;;;;;5014342;28;20188;-45
2023/02/03 14:38:16;;;;;;;2.25;1.33;;;;;;;;;;5015878;28;20540;-46
2023/02/03 14:41:00;;;;;;;4.70;1.20;;;;;;;;;;5010599;28;20246;-45
2023/02/03 14:43:38;;;;;;;3.92;1.20;;;;;;;;;;5012039;28;20182;-45
2023/02/03 14:46:04;;;;;;;2.55;1.20;;;;;;;;;;5008011;28;20571;-45
2023/02/03 14:48:49;;;;;;;3.22;1.30;;;;;;;;;;5009781;28;20181;-46
2023/02/03 14:51:15;;;;;;;5.30;1.30;;;;;;;;;;5013448;28;20246;-46
2023/02/03 14:53:50;;;;;;;1.90;1.10;;;;;;;;;;5014610;28;20188;-46
2023/02/03 14:57:14;;;;;;;2.15;0.93;;;;;;;;;;5009927;28;20188;-46